createdAt,value
2018-06-25T00:01:00.651Z,99.99
2018-06-25T00:02:09.567Z,99.99
2018-06-25T00:03:18.211Z,99.99
2018-06-25T00:04:27.123Z,99.99
2018-06-25T00:05:35.759Z,99.99
2018-06-25T00:06:44.413Z,99.99
2018-06-25T00:07:53.056Z,99.99
2018-06-25T00:09:01.977Z,99.99
2018-06-25T00:10:10.877Z,99.99
2018-06-25T00:11:19.524Z,99.99
2018-06-25T00:12:28.173Z,99.99
2018-06-25T00:13:36.817Z,99.99
2018-06-25T00:14:45.465Z,99.99
2018-06-25T00:15:54.103Z,99.99
2018-06-25T00:17:02.750Z,99.99
2018-06-25T00:18:11.390Z,99.99
2018-06-25T00:19:20.043Z,99.99
2018-06-25T00:20:28.678Z,99.99
2018-06-25T00:21:37.325Z,99.99
2018-06-25T00:22:45.968Z,99.99
2018-06-25T00:23:54.621Z,99.99
2018-06-25T00:25:03.255Z,99.99
2018-06-25T00:26:11.902Z,99.99
2018-06-25T00:27:20.545Z,99.99
2018-06-25T00:28:29.199Z,99.99
2018-06-25T00:29:37.841Z,99.99
2018-06-25T00:30:46.480Z,99.99
2018-06-25T00:31:55.125Z,99.99
2018-06-25T00:33:04.037Z,99.99
2018-06-25T00:34:12.691Z,99.99
2018-06-25T00:35:21.334Z,99.99
2018-06-25T00:36:29.986Z,99.99
2018-06-25T00:37:38.625Z,99.99
2018-06-25T00:38:47.810Z,99.99
2018-06-25T00:39:56.449Z,99.99
2018-06-25T00:41:05.098Z,99.99
2018-06-25T00:42:13.733Z,99.99
2018-06-25T00:43:22.647Z,99.99
2018-06-25T00:44:31.560Z,99.99
2018-06-25T00:45:40.205Z,99.99
2018-06-25T00:46:48.848Z,99.99
2018-06-25T00:47:57.497Z,99.99
2018-06-25T00:49:06.142Z,99.99
2018-06-25T00:50:14.789Z,99.99
2018-06-25T00:51:23.433Z,99.99
2018-06-25T00:52:32.072Z,99.99
2018-06-25T00:53:40.718Z,99.99
2018-06-25T00:54:49.362Z,99.99
2018-06-25T00:55:58.010Z,99.99
2018-06-25T00:57:06.650Z,99.99
2018-06-25T00:58:15.294Z,99.99
2018-06-25T00:59:23.944Z,99.99
2018-06-25T01:00:32.594Z,99.99
2018-06-25T01:01:41.228Z,99.99
2018-06-25T01:02:49.874Z,99.99
2018-06-25T01:03:58.784Z,99.99
2018-06-25T01:05:07.441Z,99.99
2018-06-25T01:06:16.347Z,99.99
2018-06-25T01:07:24.993Z,99.99
2018-06-25T01:08:33.632Z,99.99
2018-06-25T01:09:42.276Z,99.99
2018-06-25T01:10:50.920Z,99.99
2018-06-25T01:11:59.567Z,99.99
2018-06-25T01:13:08.208Z,99.99
2018-06-25T01:14:16.846Z,99.99
2018-06-25T01:15:25.499Z,99.99
2018-06-25T01:16:34.407Z,99.99
2018-06-25T01:17:43.051Z,99.99
2018-06-25T01:18:51.956Z,99.99
2018-06-25T01:20:00.605Z,99.99
2018-06-25T01:21:09.248Z,99.99
2018-06-25T01:22:17.894Z,99.99
2018-06-25T01:23:26.531Z,99.99
2018-06-25T01:24:35.180Z,99.99
2018-06-25T01:25:43.822Z,99.99
2018-06-25T01:26:52.733Z,99.99
2018-06-25T01:28:01.382Z,99.99
2018-06-25T01:29:10.020Z,99.99
2018-06-25T01:30:18.662Z,99.99
2018-06-25T01:31:27.306Z,99.99
2018-06-25T01:32:35.955Z,99.99
2018-06-25T01:33:44.592Z,99.99
2018-06-25T01:34:53.236Z,99.99
2018-06-25T01:36:02.416Z,99.99
2018-06-25T01:37:11.062Z,99.99
2018-06-25T01:38:19.701Z,99.99
2018-06-25T01:39:28.611Z,99.99
2018-06-25T01:40:37.251Z,99.99
2018-06-25T01:41:45.941Z,99.99
2018-06-25T01:42:54.552Z,99.99
2018-06-25T01:44:03.190Z,99.99
2018-06-25T01:45:12.097Z,99.99
2018-06-25T01:46:20.741Z,99.99
2018-06-25T01:47:29.393Z,99.99
2018-06-25T01:48:38.034Z,99.99
2018-06-25T01:49:46.681Z,99.99
2018-06-25T01:50:55.320Z,99.99
2018-06-25T01:52:04.238Z,99.99
2018-06-25T01:53:12.880Z,99.99
2018-06-25T01:54:21.532Z,99.99
2018-06-25T01:55:30.172Z,99.99
2018-06-25T01:56:38.825Z,99.99
2018-06-25T01:57:47.735Z,99.99
2018-06-25T01:58:56.919Z,99.99
2018-06-25T02:00:05.554Z,99.99
2018-06-25T02:01:14.201Z,99.99
2018-06-25T02:02:22.849Z,99.99
2018-06-25T02:03:31.498Z,99.99
2018-06-25T02:04:40.145Z,99.99
2018-06-25T02:05:48.780Z,99.99
2018-06-25T02:06:57.430Z,99.99
2018-06-25T02:08:06.335Z,99.99
2018-06-25T02:09:14.989Z,99.99
2018-06-25T02:10:23.630Z,99.99
2018-06-25T02:11:32.276Z,99.99
2018-06-25T02:12:40.917Z,99.99
2018-06-25T02:13:49.572Z,99.99
2018-06-25T02:14:58.205Z,99.99
2018-06-25T02:16:06.851Z,99.99
2018-06-25T02:17:15.494Z,99.99
2018-06-25T02:18:24.147Z,99.99
2018-06-25T02:19:33.059Z,99.99
2018-06-25T02:20:41.697Z,99.99
2018-06-25T02:21:50.340Z,99.99
2018-06-25T02:22:58.986Z,99.99
2018-06-25T02:24:07.901Z,99.99
2018-06-25T02:25:16.544Z,99.99
2018-06-25T02:26:25.190Z,99.99
2018-06-25T02:27:33.825Z,99.99
2018-06-25T02:28:42.482Z,99.99
2018-06-25T02:29:51.649Z,99.99
2018-06-25T02:31:00.296Z,99.99
2018-06-25T02:32:09.212Z,99.99
2018-06-25T02:33:17.865Z,99.99
2018-06-25T02:34:26.508Z,99.99
2018-06-25T02:35:35.152Z,99.99
2018-06-25T02:36:43.796Z,99.99
2018-06-25T02:37:52.435Z,99.99
2018-06-25T02:39:01.084Z,99.99
2018-06-25T02:40:09.997Z,99.99
2018-06-25T02:41:18.917Z,99.99
2018-06-25T02:42:27.555Z,99.99
2018-06-25T02:43:36.212Z,99.99
2018-06-25T02:44:44.855Z,99.99
2018-06-25T02:45:53.512Z,99.99
2018-06-25T02:47:02.167Z,99.99
2018-06-25T02:48:11.079Z,99.99
2018-06-25T02:49:19.986Z,99.99
2018-06-25T02:50:28.634Z,99.99
2018-06-25T02:51:37.278Z,99.99
2018-06-25T02:52:45.922Z,99.99
2018-06-25T02:53:54.830Z,99.99
2018-06-25T02:55:03.763Z,99.99
2018-06-25T02:56:12.687Z,99.99
2018-06-25T02:57:21.602Z,99.99
2018-06-25T02:58:30.246Z,99.99
2018-06-25T02:59:38.894Z,99.99
2018-06-25T03:00:47.547Z,99.99
2018-06-25T03:01:56.383Z,99.99
2018-06-25T03:03:05.128Z,99.99
2018-06-25T03:04:13.961Z,99.99
2018-06-25T03:05:22.610Z,99.99
2018-06-25T03:06:31.353Z,99.99
2018-06-25T03:07:40.632Z,99.99
2018-06-25T03:08:49.272Z,99.99
2018-06-25T03:09:57.920Z,99.99
2018-06-25T03:11:06.565Z,99.99
2018-06-25T03:12:15.214Z,99.99
2018-06-25T03:13:23.854Z,99.99
2018-06-25T03:14:32.501Z,99.99
2018-06-25T03:15:41.409Z,99.99
2018-06-25T03:16:50.057Z,99.99
2018-06-25T03:17:58.709Z,99.99
2018-06-25T03:19:07.360Z,99.99
2018-06-25T03:20:16.002Z,99.99
2018-06-25T03:21:24.649Z,99.99
2018-06-25T03:22:33.561Z,99.99
2018-06-25T03:23:42.465Z,99.99
2018-06-25T03:24:51.112Z,99.99
2018-06-25T03:25:59.755Z,99.99
2018-06-25T03:27:08.668Z,99.99
2018-06-25T03:28:17.565Z,99.99
2018-06-25T03:29:26.212Z,99.99
2018-06-25T03:30:35.121Z,99.99
2018-06-25T03:31:44.039Z,99.99
2018-06-25T03:32:52.960Z,99.99
2018-06-25T03:34:01.606Z,99.99
2018-06-25T03:35:10.244Z,99.99
2018-06-25T03:36:18.887Z,99.99
2018-06-25T03:37:27.534Z,99.99
2018-06-25T03:38:36.177Z,99.99
2018-06-25T03:39:45.086Z,99.99
2018-06-25T03:40:53.735Z,99.99
2018-06-25T03:42:02.375Z,99.99
2018-06-25T03:43:11.031Z,99.99
2018-06-25T03:44:19.985Z,99.99
2018-06-25T03:45:28.632Z,99.99
2018-06-25T03:46:37.272Z,99.99
2018-06-25T03:47:45.919Z,99.99
2018-06-25T03:48:54.561Z,99.99
2018-06-25T03:50:03.473Z,99.99
2018-06-25T03:51:12.112Z,99.99
2018-06-25T03:52:21.027Z,99.99
2018-06-25T03:53:29.667Z,99.99
2018-06-25T03:54:38.307Z,99.99
2018-06-25T03:55:46.955Z,99.99
2018-06-25T03:56:55.602Z,99.99
2018-06-25T03:58:04.515Z,99.99
2018-06-25T03:59:13.156Z,99.99
2018-06-25T04:00:21.806Z,99.99
2018-06-25T04:01:30.450Z,99.99
2018-06-25T04:02:39.093Z,99.99
2018-06-25T04:03:47.733Z,99.99
2018-06-25T04:04:56.380Z,99.99
2018-06-25T04:06:05.288Z,99.99
2018-06-25T04:07:13.933Z,99.99
2018-06-25T04:08:22.572Z,99.99
2018-06-25T04:09:31.226Z,99.99
2018-06-25T04:10:40.132Z,99.99
2018-06-25T04:11:49.043Z,99.99
2018-06-25T04:12:57.694Z,99.99
2018-06-25T04:14:06.345Z,99.99
2018-06-25T04:15:15.249Z,99.99
2018-06-25T04:16:23.894Z,99.99
2018-06-25T04:17:32.543Z,99.99
2018-06-25T04:18:41.182Z,99.99
2018-06-25T04:19:49.826Z,99.99
2018-06-25T04:20:58.472Z,99.99
2018-06-25T04:22:07.130Z,99.99
2018-06-25T04:23:16.047Z,99.99
2018-06-25T04:24:24.695Z,99.99
2018-06-25T04:25:33.337Z,99.99
2018-06-25T04:26:41.985Z,99.99
2018-06-25T04:27:50.628Z,99.99
2018-06-25T04:28:59.264Z,99.99
2018-06-25T04:30:07.909Z,99.99
2018-06-25T04:31:16.549Z,99.99
2018-06-25T04:32:25.197Z,99.99
2018-06-25T04:33:33.844Z,99.99
2018-06-25T04:34:42.491Z,99.99
2018-06-25T04:35:51.130Z,99.99
2018-06-25T04:36:59.782Z,99.99
2018-06-25T04:38:08.424Z,99.99
2018-06-25T04:39:17.066Z,99.99
2018-06-25T04:40:25.703Z,99.99
2018-06-25T04:41:34.628Z,99.99
2018-06-25T04:42:43.550Z,99.99
2018-06-25T04:43:52.196Z,99.99
2018-06-25T04:45:00.831Z,99.99
2018-06-25T04:46:09.478Z,99.99
2018-06-25T04:47:18.124Z,99.99
2018-06-25T04:48:26.773Z,99.99
2018-06-25T04:49:35.685Z,99.99
2018-06-25T04:50:44.321Z,99.99
2018-06-25T04:51:52.967Z,99.99
2018-06-25T04:53:01.875Z,99.99
2018-06-25T04:54:10.533Z,99.99
2018-06-25T04:55:19.170Z,99.99
2018-06-25T04:56:27.819Z,99.99
2018-06-25T04:57:36.725Z,99.99
2018-06-25T04:58:45.637Z,99.99
2018-06-25T04:59:54.276Z,99.99
2018-06-25T05:01:02.923Z,99.99
2018-06-25T05:02:11.911Z,99.99
2018-06-25T05:03:20.826Z,99.99
2018-06-25T05:04:29.467Z,99.99
2018-06-25T05:05:38.110Z,99.99
2018-06-25T05:06:46.750Z,99.99
2018-06-25T05:07:55.397Z,99.99
2018-06-25T05:09:04.050Z,99.99
2018-06-25T05:10:12.689Z,99.99
2018-06-25T05:11:21.339Z,99.99
2018-06-25T05:12:29.974Z,99.99
2018-06-25T05:13:38.627Z,99.99
2018-06-25T05:14:47.538Z,99.99
2018-06-25T05:15:56.188Z,99.99
2018-06-25T05:17:04.824Z,99.99
2018-06-25T05:18:13.484Z,99.99
2018-06-25T05:19:22.397Z,99.99
2018-06-25T05:20:31.043Z,99.99
2018-06-25T05:21:39.679Z,99.99
2018-06-25T05:22:48.328Z,99.99
2018-06-25T05:23:57.244Z,99.99
2018-06-25T05:25:06.164Z,99.99
2018-06-25T05:26:15.076Z,99.99
2018-06-25T05:27:23.714Z,99.99
2018-06-25T05:28:32.364Z,99.99
2018-06-25T05:29:41.006Z,99.99
2018-06-25T05:30:49.667Z,99.99
2018-06-25T05:31:58.305Z,99.99
2018-06-25T05:33:06.954Z,99.99
2018-06-25T05:34:15.594Z,99.99
2018-06-25T05:35:24.247Z,99.99
2018-06-25T05:36:32.884Z,99.99
2018-06-25T05:37:41.530Z,99.99
2018-06-25T05:38:50.172Z,99.99
2018-06-25T05:39:58.826Z,99.99
2018-06-25T05:41:07.469Z,99.99
2018-06-25T05:42:16.110Z,99.99
2018-06-25T05:43:24.751Z,99.99
2018-06-25T05:44:33.393Z,99.99
2018-06-25T05:45:42.048Z,99.99
2018-06-25T05:46:50.686Z,99.99
2018-06-25T05:47:59.330Z,99.99
2018-06-25T05:49:07.965Z,99.99
2018-06-25T05:50:16.619Z,99.99
2018-06-25T05:51:25.259Z,99.99
2018-06-25T05:52:33.912Z,99.99
2018-06-25T05:53:42.813Z,99.99
2018-06-25T05:54:51.734Z,99.99
2018-06-25T05:56:00.636Z,99.99
2018-06-25T05:57:09.284Z,99.99
2018-06-25T05:58:17.919Z,99.99
2018-06-25T05:59:26.826Z,99.99
2018-06-25T06:00:35.478Z,99.99
2018-06-25T06:01:44.393Z,99.99
2018-06-25T06:02:53.047Z,99.99
2018-06-25T06:04:01.681Z,99.99
2018-06-25T06:05:10.334Z,99.99
2018-06-25T06:06:18.975Z,99.99
2018-06-25T06:07:27.629Z,99.99
2018-06-25T06:08:36.266Z,99.99
2018-06-25T06:09:44.916Z,99.99
2018-06-25T06:10:53.560Z,99.99
2018-06-25T06:12:02.214Z,99.99
2018-06-25T06:13:10.850Z,99.99
2018-06-25T06:14:19.496Z,99.99
2018-06-25T06:15:28.414Z,99.99
2018-06-25T06:16:37.096Z,99.99
2018-06-25T06:17:45.715Z,99.99
2018-06-25T06:18:54.355Z,99.99
2018-06-25T06:20:03.003Z,99.99
2018-06-25T06:21:11.647Z,99.99
2018-06-25T06:22:20.302Z,99.99
2018-06-25T06:23:28.943Z,99.99
2018-06-25T06:24:37.592Z,99.99
2018-06-25T06:25:46.228Z,99.99
2018-06-25T06:26:54.885Z,99.99
2018-06-25T06:28:03.524Z,99.99
2018-06-25T06:29:12.176Z,99.99
2018-06-25T06:30:20.811Z,99.99
2018-06-25T06:31:29.464Z,99.99
2018-06-25T06:32:38.108Z,99.99
2018-06-25T06:33:46.753Z,99.99
2018-06-25T06:34:55.395Z,99.99
2018-06-25T06:36:04.045Z,99.99
2018-06-25T06:37:12.693Z,99.99
2018-06-25T06:38:21.339Z,99.99
2018-06-25T06:39:29.988Z,99.99
2018-06-25T06:40:38.893Z,99.99
2018-06-25T06:41:47.539Z,99.99
2018-06-25T06:42:56.183Z,99.99
2018-06-25T06:44:04.833Z,99.99
2018-06-25T06:45:13.476Z,99.99
2018-06-25T06:46:22.122Z,99.99
2018-06-25T06:47:31.041Z,99.99
2018-06-25T06:48:39.684Z,99.99
2018-06-25T06:49:48.324Z,99.99
2018-06-25T06:50:56.970Z,99.99
2018-06-25T06:52:05.615Z,99.99
2018-06-25T06:53:14.265Z,99.99
2018-06-25T06:54:22.908Z,99.91
2018-06-25T06:55:31.556Z,99.91
2018-06-25T06:56:40.200Z,99.99
2018-06-25T06:57:48.958Z,99.53
2018-06-25T06:58:57.524Z,99.53
2018-06-25T07:00:06.144Z,99.53
2018-06-25T07:01:14.792Z,99.05
2018-06-25T07:02:23.435Z,98.28
2018-06-25T07:03:32.085Z,98.86
2018-06-25T07:04:40.802Z,99.63
2018-06-25T07:05:49.388Z,99.53
2018-06-25T07:06:58.295Z,99.15
2018-06-25T07:08:06.946Z,99.82
2018-06-25T07:09:15.590Z,99.99
2018-06-25T07:10:24.744Z,99.43
2018-06-25T07:11:33.556Z,99.53
2018-06-25T07:12:42.205Z,98.91
2018-06-25T07:13:50.852Z,99.01
2018-06-25T07:14:59.500Z,98.33
2018-06-25T07:16:08.150Z,97.95
2018-06-25T07:17:16.793Z,97.56
2018-06-25T07:18:25.439Z,97.23
2018-06-25T07:19:34.086Z,97.14
2018-06-25T07:20:42.754Z,95.79
2018-06-25T07:21:51.381Z,94.74
2018-06-25T07:23:00.038Z,94.84
2018-06-25T07:24:08.948Z,94.84
2018-06-25T07:25:17.602Z,94.84
2018-06-25T07:26:26.242Z,95.31
2018-06-25T07:27:34.892Z,96.08
2018-06-25T07:28:43.557Z,94.84
2018-06-25T07:29:52.217Z,95.03
2018-06-25T07:31:00.838Z,95.98
2018-06-25T07:32:09.757Z,95.6
2018-06-25T07:33:18.403Z,95.36
2018-06-25T07:34:27.065Z,95.84
2018-06-25T07:35:35.710Z,96.13
2018-06-25T07:36:44.358Z,96.13
2018-06-25T07:37:53.011Z,96.27
2018-06-25T07:39:01.658Z,95.89
2018-06-25T07:40:10.300Z,96.18
2018-06-25T07:41:18.949Z,94.45
2018-06-25T07:42:27.784Z,94.35
2018-06-25T07:43:36.247Z,94.35
2018-06-25T07:44:45.154Z,94.17
2018-06-25T07:45:53.802Z,93.11
2018-06-25T07:47:02.516Z,93.97
2018-06-25T07:48:11.099Z,94.07
2018-06-25T07:49:19.745Z,94.45
2018-06-25T07:50:28.651Z,94.45
2018-06-25T07:51:37.296Z,93.97
2018-06-25T07:52:45.945Z,94.35
2018-06-25T07:53:54.603Z,94.45
2018-06-25T07:55:03.515Z,93.88
2018-06-25T07:56:12.431Z,94.74
2018-06-25T07:57:21.076Z,93.97
2018-06-25T07:58:29.730Z,94.26
2018-06-25T07:59:38.904Z,93.82
2018-06-25T08:00:47.550Z,93.92
2018-06-25T08:01:56.195Z,92.39
2018-06-25T08:03:04.846Z,91.62
2018-06-25T08:04:13.490Z,93.25
2018-06-25T08:05:22.138Z,92.48
2018-06-25T08:06:30.781Z,91.91
2018-06-25T08:07:39.701Z,92
2018-06-25T08:08:48.351Z,92
2018-06-25T08:09:57.083Z,91.72
2018-06-25T08:11:05.699Z,91.24
2018-06-25T08:12:14.292Z,91.24
2018-06-25T08:13:22.939Z,91.81
2018-06-25T08:14:31.584Z,91.96
2018-06-25T08:15:40.237Z,92.63
2018-06-25T08:16:49.152Z,91.67
2018-06-25T08:17:57.798Z,91.81
2018-06-25T08:19:06.449Z,92.19
2018-06-25T08:20:15.151Z,91.42
2018-06-25T08:21:24.020Z,90.66
2018-06-25T08:22:32.673Z,89.61
2018-06-25T08:23:41.576Z,89.51
2018-06-25T08:24:50.229Z,91.38
2018-06-25T08:25:58.875Z,91.96
2018-06-25T08:27:07.522Z,90.42
2018-06-25T08:28:16.167Z,88.59
2018-06-25T08:29:24.811Z,87.25
2018-06-25T08:30:33.465Z,88.02
2018-06-25T08:31:42.369Z,89.07
2018-06-25T08:32:51.024Z,89.94
2018-06-25T08:33:59.690Z,90.03
2018-06-25T08:35:08.318Z,88.69
2018-06-25T08:36:16.961Z,88.88
2018-06-25T08:37:25.613Z,89.84
2018-06-25T08:38:34.251Z,88.98
2018-06-25T08:39:43.181Z,89.07
2018-06-25T08:40:51.827Z,88.21
2018-06-25T08:42:00.479Z,88.69
2018-06-25T08:43:09.120Z,89.84
2018-06-25T08:44:17.768Z,90.22
2018-06-25T08:45:26.424Z,90.03
2018-06-25T08:46:35.073Z,90.22
2018-06-25T08:47:43.725Z,89.36
2018-06-25T08:48:52.362Z,88.31
2018-06-25T08:50:01.015Z,89.02
2018-06-25T08:51:09.660Z,89.22
2018-06-25T08:52:18.318Z,88.93
2018-06-25T08:53:26.957Z,86.81
2018-06-25T08:54:35.612Z,87.96
2018-06-25T08:55:44.255Z,86.62
2018-06-25T08:56:52.953Z,86.24
2018-06-25T08:58:01.558Z,85.57
2018-06-25T08:59:10.211Z,86.14
2018-06-25T09:00:19.134Z,86.09
2018-06-25T09:01:27.795Z,87.15
2018-06-25T09:02:36.442Z,86.85
2018-06-25T09:03:45.353Z,86.09
2018-06-25T09:04:54.002Z,84.45
2018-06-25T09:06:02.646Z,84.94
2018-06-25T09:07:11.305Z,86.85
2018-06-25T09:08:19.954Z,86.09
2018-06-25T09:09:28.652Z,87.68
2018-06-25T09:10:37.243Z,88.2
2018-06-25T09:11:45.901Z,86.62
2018-06-25T09:12:54.546Z,85.66
2018-06-25T09:14:03.200Z,86.52
2018-06-25T09:15:12.191Z,85.08
2018-06-25T09:16:21.145Z,87.01
2018-06-25T09:17:30.320Z,86.14
2018-06-25T09:18:38.966Z,86.05
2018-06-25T09:19:47.873Z,86.76
2018-06-25T09:20:56.528Z,87.24
2018-06-25T09:22:05.188Z,87.34
2018-06-25T09:23:14.109Z,85.03
2018-06-25T09:24:22.762Z,84.36
2018-06-25T09:25:31.412Z,84.07
2018-06-25T09:26:40.071Z,85.17
2018-06-25T09:27:48.985Z,85.27
2018-06-25T09:28:57.937Z,84.5
2018-06-25T09:30:06.580Z,83.44
2018-06-25T09:31:15.227Z,82.23
2018-06-25T09:32:24.140Z,81.94
2018-06-25T09:33:32.792Z,81.27
2018-06-25T09:34:42.193Z,82.04
2018-06-25T09:35:51.382Z,80.69
2018-06-25T09:37:00.290Z,81.37
2018-06-25T09:38:08.948Z,82.04
2018-06-25T09:39:17.858Z,80.02
2018-06-25T09:40:26.507Z,81.17
2018-06-25T09:41:35.341Z,79.05
2018-06-25T09:42:43.802Z,78.48
2018-06-25T09:43:52.457Z,79.53
2018-06-25T09:45:01.105Z,79.44
2018-06-25T09:46:09.754Z,78.58
2018-06-25T09:47:18.399Z,78.58
2018-06-25T09:48:27.054Z,80.02
2018-06-25T09:49:35.706Z,80.6
2018-06-25T09:50:44.361Z,81.94
2018-06-25T09:51:53.008Z,79.73
2018-06-25T09:53:01.661Z,79.25
2018-06-25T09:54:10.573Z,77.9
2018-06-25T09:55:19.221Z,80.11
2018-06-25T09:56:27.865Z,78.77
2018-06-25T09:57:36.787Z,80.21
2018-06-25T09:58:45.437Z,79.82
2018-06-25T09:59:54.090Z,77.94
2018-06-25T10:01:02.741Z,76.59
2018-06-25T10:02:11.386Z,77.69
2018-06-25T10:03:20.040Z,74.61
2018-06-25T10:04:28.691Z,75.57
2018-06-25T10:05:37.607Z,76.06
2018-06-25T10:06:46.253Z,78.56
2018-06-25T10:07:54.902Z,75.57
2018-06-25T10:09:03.551Z,76.15
2018-06-25T10:10:12.207Z,77.08
2018-06-25T10:11:21.116Z,77.46
2018-06-25T10:12:29.767Z,77.26
2018-06-25T10:13:38.417Z,77.56
2018-06-25T10:14:47.071Z,78.52
2018-06-25T10:15:55.720Z,77.26
2018-06-25T10:17:04.646Z,79.19
2018-06-25T10:18:13.294Z,78.33
2018-06-25T10:19:22.207Z,76.78
2018-06-25T10:20:30.864Z,76.94
2018-06-25T10:21:39.511Z,76.17
2018-06-25T10:22:48.160Z,77.76
2018-06-25T10:23:56.802Z,77.96
2018-06-25T10:25:05.739Z,77.09
2018-06-25T10:26:14.383Z,76.71
2018-06-25T10:27:23.032Z,77.19
2018-06-25T10:28:31.749Z,78.44
2018-06-25T10:29:40.338Z,76.81
2018-06-25T10:30:48.984Z,75.98
2018-06-25T10:31:57.633Z,75.49
2018-06-25T10:33:06.275Z,76.17
2018-06-25T10:34:14.923Z,76.4
2018-06-25T10:35:23.579Z,74.22
2018-06-25T10:36:32.231Z,74.03
2018-06-25T10:37:41.418Z,73.78
2018-06-25T10:38:50.061Z,74.26
2018-06-25T10:39:58.713Z,73.01
2018-06-25T10:41:07.358Z,74.51
2018-06-25T10:42:16.033Z,73.84
2018-06-25T10:43:24.657Z,72.39
2018-06-25T10:44:33.309Z,72.59
2018-06-25T10:45:41.955Z,72.68
2018-06-25T10:46:50.885Z,72.68
2018-06-25T10:47:59.523Z,72.39
2018-06-25T10:49:08.176Z,72.39
2018-06-25T10:50:16.823Z,72.84
2018-06-25T10:51:25.752Z,73.13
2018-06-25T10:52:34.659Z,73.51
2018-06-25T10:53:43.303Z,72.84
2018-06-25T10:54:51.951Z,73.55
2018-06-25T10:56:00.600Z,73.26
2018-06-25T10:57:09.269Z,73.26
2018-06-25T10:58:18.177Z,73.07
2018-06-25T10:59:26.959Z,73.65
2018-06-25T11:00:35.473Z,75.19
2018-06-25T11:01:44.133Z,73.16
2018-06-25T11:02:52.776Z,74.99
2018-06-25T11:04:01.433Z,74.41
2018-06-25T11:05:10.340Z,72.78
2018-06-25T11:06:19.001Z,72.72
2018-06-25T11:07:27.811Z,70.98
2018-06-25T11:08:36.692Z,70.5
2018-06-25T11:09:45.330Z,71.47
2018-06-25T11:10:53.979Z,70.41
2018-06-25T11:12:02.635Z,69.06
2018-06-25T11:13:11.287Z,70.02
2018-06-25T11:14:19.943Z,67.81
2018-06-25T11:15:28.857Z,67.52
2018-06-25T11:16:37.780Z,68.68
2018-06-25T11:17:46.424Z,70.64
2018-06-25T11:18:55.350Z,69.57
2018-06-25T11:20:04.253Z,67.84
2018-06-25T11:21:12.909Z,68.8
2018-06-25T11:22:21.556Z,68.04
2018-06-25T11:23:30.218Z,67.84
2018-06-25T11:24:38.858Z,69.09
2018-06-25T11:25:47.516Z,68.71
2018-06-25T11:26:56.320Z,69.09
2018-06-25T11:28:05.081Z,68.96
2018-06-25T11:29:13.996Z,69.83
2018-06-25T11:30:22.647Z,69.54
2018-06-25T11:31:31.662Z,70.89
2018-06-25T11:32:40.592Z,70.95
2018-06-25T11:33:49.234Z,70.95
2018-06-25T11:34:58.153Z,71.34
2018-06-25T11:36:06.799Z,71.72
2018-06-25T11:37:15.635Z,72.68
2018-06-25T11:38:24.417Z,72.14
2018-06-25T11:39:33.080Z,71.08
2018-06-25T11:40:41.727Z,69.73
2018-06-25T11:41:50.393Z,68.23
2018-06-25T11:42:59.022Z,68.04
2018-06-25T11:44:07.675Z,69.19
2018-06-25T11:45:16.322Z,66.01
2018-06-25T11:46:25.171Z,66.11
2018-06-25T11:47:34.080Z,67.16
2018-06-25T11:48:42.728Z,67.16
2018-06-25T11:49:51.378Z,67.55
2018-06-25T11:51:00.037Z,67.71
2018-06-25T11:52:08.963Z,67.74
2018-06-25T11:53:17.609Z,68.19
2018-06-25T11:54:26.264Z,68.19
2018-06-25T11:55:34.909Z,69.06
2018-06-25T11:56:43.563Z,68.42
2018-06-25T11:57:52.213Z,69.19
2018-06-25T11:59:01.129Z,68.42
2018-06-25T12:00:09.832Z,69.19
2018-06-25T12:01:18.433Z,68.45
2018-06-25T12:02:27.102Z,68.35
2018-06-25T12:03:36.203Z,65.37
2018-06-25T12:04:44.845Z,65.85
2018-06-25T12:05:53.512Z,63.92
2018-06-25T12:07:02.171Z,64.31
2018-06-25T12:08:11.086Z,64.98
2018-06-25T12:09:19.739Z,63.82
2018-06-25T12:10:28.432Z,64.89
2018-06-25T12:11:37.038Z,64.5
2018-06-25T12:12:45.690Z,64.02
2018-06-25T12:13:54.351Z,66.24
2018-06-25T12:15:03.000Z,65.37
2018-06-25T12:16:11.656Z,65.72
2018-06-25T12:17:20.300Z,67.55
2018-06-25T12:18:28.962Z,68.13
2018-06-25T12:19:37.602Z,68.42
2018-06-25T12:20:46.539Z,68.8
2018-06-25T12:21:55.188Z,68.42
2018-06-25T12:23:03.905Z,66.94
2018-06-25T12:24:12.503Z,66.65
2018-06-25T12:25:21.147Z,66.49
2018-06-25T12:26:29.803Z,65.72
2018-06-25T12:27:38.457Z,65.63
2018-06-25T12:28:47.376Z,65.17
2018-06-25T12:29:56.025Z,62.86
2018-06-25T12:31:04.679Z,63.15
2018-06-25T12:32:13.373Z,63.92
2018-06-25T12:33:21.983Z,63.18
2018-06-25T12:34:30.637Z,60.51
2018-06-25T12:35:39.289Z,60.89
2018-06-25T12:36:48.198Z,62.63
2018-06-25T12:37:56.903Z,60.8
2018-06-25T12:39:05.506Z,59.06
2018-06-25T12:40:14.162Z,59.16
2018-06-25T12:41:22.860Z,59.71
2018-06-25T12:42:31.802Z,59.32
2018-06-25T12:43:40.453Z,61.74
2018-06-25T12:44:49.109Z,61.64
2018-06-25T12:45:57.763Z,62.79
2018-06-25T12:47:06.428Z,62.79
2018-06-25T12:48:15.133Z,61.64
2018-06-25T12:49:23.729Z,62.51
2018-06-25T12:50:32.383Z,61.83
2018-06-25T12:51:41.029Z,61.16
2018-06-25T12:52:49.949Z,61.44
2018-06-25T12:53:58.715Z,61.16
2018-06-25T12:55:07.260Z,61.35
2018-06-25T12:56:16.170Z,61.57
2018-06-25T12:57:24.825Z,61.67
2018-06-25T12:58:33.477Z,60.31
2018-06-25T12:59:42.131Z,61.28
2018-06-25T13:00:50.780Z,62.54
2018-06-25T13:01:59.435Z,62.6
2018-06-25T13:03:08.086Z,63.28
2018-06-25T13:04:16.748Z,62.7
2018-06-25T13:05:25.662Z,64.34
2018-06-25T13:06:34.313Z,62.89
2018-06-25T13:07:42.964Z,61.35
2018-06-25T13:08:51.611Z,62.79
2018-06-25T13:10:00.267Z,62.7
2018-06-25T13:11:09.183Z,64.34
2018-06-25T13:12:17.836Z,63.28
2018-06-25T13:13:26.483Z,61.74
2018-06-25T13:14:35.407Z,62.7
2018-06-25T13:15:44.055Z,63.18
2018-06-25T13:16:52.709Z,61.83
2018-06-25T13:18:01.357Z,60.77
2018-06-25T13:19:10.010Z,60.68
2018-06-25T13:20:18.663Z,61.25
2018-06-25T13:21:27.317Z,61.83
2018-06-25T13:22:35.973Z,61.28
2018-06-25T13:23:44.615Z,60.8
2018-06-25T13:24:53.267Z,61.38
2018-06-25T13:26:02.187Z,60.03
2018-06-25T13:27:10.829Z,60.41
2018-06-25T13:28:19.489Z,59.86
2018-06-25T13:29:28.141Z,60.16
2018-06-25T13:30:36.793Z,60.73
2018-06-25T13:31:45.442Z,61.51
2018-06-25T13:32:54.101Z,60.93
2018-06-25T13:34:02.750Z,61.57
2018-06-25T13:35:11.408Z,63.4
2018-06-25T13:36:20.051Z,61.22
2018-06-25T13:37:28.706Z,60.73
2018-06-25T13:38:37.360Z,61.02
2018-06-25T13:39:46.018Z,60.73
2018-06-25T13:40:54.677Z,60.83
2018-06-25T13:42:03.319Z,59.86
2018-06-25T13:43:11.977Z,59.58
2018-06-25T13:44:20.648Z,59.45
2018-06-25T13:45:29.301Z,60.22
2018-06-25T13:46:37.929Z,60.31
2018-06-25T13:47:46.855Z,59.77
2018-06-25T13:48:55.759Z,59.19
2018-06-25T13:50:04.420Z,59
2018-06-25T13:51:13.063Z,59.77
2018-06-25T13:52:21.720Z,59.67
2018-06-25T13:53:30.366Z,60.35
2018-06-25T13:54:39.086Z,60.73
2018-06-25T13:55:47.681Z,59.48
2018-06-25T13:56:56.326Z,60.73
2018-06-25T13:58:04.976Z,61.47
2018-06-25T13:59:13.625Z,61.57
2018-06-25T14:00:22.286Z,61.57
2018-06-25T14:01:31.193Z,62.05
2018-06-25T14:02:39.850Z,63.31
2018-06-25T14:03:48.575Z,62.82
2018-06-25T14:04:57.161Z,61.44
2018-06-25T14:06:05.813Z,63.95
2018-06-25T14:07:14.473Z,62.7
2018-06-25T14:08:23.117Z,62.6
2018-06-25T14:09:31.782Z,62.89
2018-06-25T14:10:40.430Z,63.28
2018-06-25T14:11:49.343Z,63.85
2018-06-25T14:12:57.985Z,63.28
2018-06-25T14:14:06.902Z,62.41
2018-06-25T14:15:15.560Z,63.24
2018-06-25T14:16:24.841Z,61.8
2018-06-25T14:17:33.472Z,61.41
2018-06-25T14:18:42.109Z,63.73
2018-06-25T14:19:51.029Z,64.21
2018-06-25T14:20:59.678Z,62.66
2018-06-25T14:22:08.337Z,62.38
2018-06-25T14:23:16.982Z,61.8
2018-06-25T14:24:25.897Z,61.74
2018-06-25T14:25:34.546Z,61.44
2018-06-25T14:26:43.200Z,61.54
2018-06-25T14:27:51.846Z,61.25
2018-06-25T14:29:00.500Z,63.37
2018-06-25T14:30:09.154Z,61.83
2018-06-25T14:31:17.809Z,62.02
2018-06-25T14:32:26.458Z,63.47
2018-06-25T14:33:35.148Z,63.76
2018-06-25T14:34:44.063Z,64.34
2018-06-25T14:35:52.714Z,61.47
2018-06-25T14:37:01.377Z,61.77
2018-06-25T14:38:10.025Z,60.99
2018-06-25T14:39:18.690Z,60.8
2018-06-25T14:40:27.922Z,62.54
2018-06-25T14:41:36.561Z,61.86
2018-06-25T14:42:45.211Z,61.28
2018-06-25T14:43:53.864Z,63.37
2018-06-25T14:45:02.509Z,63.18
2018-06-25T14:46:11.439Z,63.76